Time;durP1;ratioP1;P1;durP2;ratioP2;P2;SDS_P1;SDS_P2;PMS_P1;PMS_P2;Temp;Humidity;BMP_temperature;BMP_pressure;BME280_temperature;BME280_humidity;BME280_pressure;Samples;Min_cycle;Max_cycle;Signal;HPM_P1;HPM_P2
2021/06/05 00:00:35;;;;;;;;;;;;;;;23.22;43.82;101666.59;6112196;23;96705;-86
2021/06/05 00:03:01;;;;;;;;;;;;;;;23.37;43.17;101656.50;6105727;23;96678;-85
2021/06/05 00:05:28;;;;;;;;;;;;;;;23.18;43.74;101659.69;6072470;23;97925;-84
2021/06/05 00:07:55;;;;;;;;;;;;;;;23.52;43.06;101658.09;6099077;23;99941;-86
2021/06/05 00:10:24;;;;;;;;;;;;;;;23.29;43.49;101664.31;6100462;23;96533;-86
2021/06/05 00:12:49;;;;;;;;;;;;;;;23.27;43.54;101664.44;6098901;23;97181;-84
2021/06/05 00:15:18;;;;;;;;;;;;;;;23.41;43.37;101661.56;6096601;23;99322;-86
2021/06/05 00:17:45;;;;;;;;;;;;;;;23.33;43.06;101663.09;6097154;23;96744;-86
2021/06/05 00:20:13;;;;;;;;;;;;;;;23.13;43.25;101661.88;6095523;23;96653;-85
2021/06/05 00:22:39;;;;;;;;;;;;;;;22.51;44.77;101661.03;6095819;23;96839;-84
2021/06/05 00:25:06;;;;;;;;;;;;;;;22.59;44.65;101654.09;6096473;23;99400;-85
2021/06/05 00:27:34;;;;;;;;;;;;;;;22.66;44.53;101657.22;6095557;23;97648;-85
2021/06/05 00:30:00;;;;;;;;;;;;;;;22.22;45.78;101661.22;6096640;23;97082;-85
2021/06/05 00:32:26;;;;;;;;;;;;;;;22.60;44.92;101655.81;6095949;23;96672;-84
2021/06/05 00:34:54;;;;;;;;;;;;;;;22.63;44.81;101660.16;6095491;23;98339;-85
2021/06/05 00:37:20;;;;;;;;;;;;;;;22.52;44.71;101662.72;6095569;23;100902;-85
2021/06/05 00:39:46;;;;;;;;;;;;;;;22.72;44.25;101664.00;6096171;23;96521;-85
2021/06/05 00:42:12;;;;;;;;;;;;;;;22.87;44.02;101663.78;6070252;23;96694;-84
2021/06/05 00:44:38;;;;;;;;;;;;;;;22.92;43.82;101664.31;6095376;23;98309;-85
2021/06/05 00:47:04;;;;;;;;;;;;;;;22.77;44.14;101667.28;6098229;23;97667;-85
2021/06/05 00:49:30;;;;;;;;;;;;;;;22.56;44.51;101657.03;6095393;23;97034;-86
2021/06/05 00:52:01;;;;;;;;;;;;;;;22.50;44.98;101660.16;6105159;23;96891;-85
2021/06/05 00:54:27;;;;;;;;;;;;;;;22.85;44.10;101660.34;6102208;23;99301;-85
2021/06/05 00:56:54;;;;;;;;;;;;;;;22.93;43.89;101657.94;6096337;23;96710;-85
2021/06/05 00:59:20;;;;;;;;;;;;;;;22.71;44.38;101657.72;6095217;23;96523;-87
2021/06/05 01:01:46;;;;;;;;;;;;;;;22.73;44.43;101661.22;6097817;23;96676;-85
2021/06/05 01:04:12;;;;;;;;;;;;;;;22.22;46.63;101661.22;6096360;23;99300;-87
2021/06/05 01:06:42;;;;;;;;;;;;;;;22.46;46.45;101657.78;6103835;23;97554;-85
2021/06/05 01:09:13;;;;;;;;;;;;;;;22.19;47.27;101656.03;6117587;23;96022;-84
2021/06/05 01:11:43;;;;;;;;;;;;;;;22.31;46.99;101665.13;6118368;23;95801;-84
2021/06/05 01:14:13;;;;;;;;;;;;;;;22.03;47.33;101665.31;6116707;23;99427;-85
2021/06/05 01:16:41;;;;;;;;;;;;;;;21.76;48.01;101663.50;6117257;23;98065;-84
2021/06/05 01:19:09;;;;;;;;;;;;;;;22.27;46.77;101663.59;6092148;23;95790;-85
2021/06/05 01:21:54;;;;;;;;;;;;;;;22.66;45.74;101654.53;6119373;23;95955;-87
2021/06/05 01:24:28;;;;;;;;;;;;;;;22.64;45.38;101659.19;6119074;23;96862;-86
2021/06/05 01:26:57;;;;;;;;;;;;;;;22.43;45.83;101658.88;6119295;23;99180;-87
2021/06/05 01:29:25;;;;;;;;;;;;;;;22.31;46.11;101657.03;6114722;23;97170;-86
2021/06/05 01:31:52;;;;;;;;;;;;;;;22.09;46.70;101654.97;6115033;23;96846;-84
2021/06/05 01:34:19;;;;;;;;;;;;;;;22.17;46.25;101655.31;6110043;23;99326;-86
2021/06/05 01:36:47;;;;;;;;;;;;;;;22.16;46.50;101650.91;6112102;23;98002;-86
2021/06/05 01:39:16;;;;;;;;;;;;;;;21.93;47.35;101658.78;6112142;23;96558;-86
2021/06/05 01:41:43;;;;;;;;;;;;;;;22.32;45.83;101655.22;6101511;23;96595;-86
2021/06/05 01:44:11;;;;;;;;;;;;;;;22.54;45.07;101655.41;6100181;23;101253;-86
2021/06/05 01:46:42;;;;;;;;;;;;;;;22.41;45.75;101659.94;6097952;23;97680;-86
2021/06/05 01:49:08;;;;;;;;;;;;;;;22.00;45.64;101650.22;6097568;23;96648;-86
2021/06/05 01:51:36;;;;;;;;;;;;;;;21.80;45.69;101638.09;6096835;23;96850;-87
2021/06/05 01:54:07;;;;;;;;;;;;;;;21.73;46.25;101641.31;6095750;23;100686;-86
2021/06/05 01:56:36;;;;;;;;;;;;;;;22.10;45.15;101639.69;6070200;23;98129;-87
2021/06/05 01:59:02;;;;;;;;;;;;;;;22.19;44.85;101647.97;6097808;23;96868;-86
2021/06/05 02:01:30;;;;;;;;;;;;;;;22.29;44.59;101642.81;6098119;23;96679;-86
2021/06/05 02:03:56;;;;;;;;;;;;;;;22.54;43.87;101645.50;6098777;23;97984;-86
2021/06/05 02:06:23;;;;;;;;;;;;;;;22.44;44.03;101644.44;6100394;23;98130;-86
2021/06/05 02:08:49;;;;;;;;;;;;;;;22.19;44.54;101644.41;6115899;23;96789;-85
2021/06/05 02:11:17;;;;;;;;;;;;;;;22.14;45.03;101636.66;6110600;23;96946;-85
2021/06/05 02:13:45;;;;;;;;;;;;;;;22.23;44.50;101635.19;6087257;23;98584;-85
2021/06/05 02:16:14;;;;;;;;;;;;;;;21.84;45.38;101626.19;6116595;23;98174;-85
2021/06/05 02:18:45;;;;;;;;;;;;;;;21.75;45.61;101629.50;6118130;23;96430;-85
2021/06/05 02:21:14;;;;;;;;;;;;;;;21.87;45.41;101614.31;6118390;23;96617;-85
2021/06/05 02:23:41;;;;;;;;;;;;;;;22.07;44.83;101612.97;6118992;23;99923;-85
2021/06/05 02:26:08;;;;;;;;;;;;;;;21.99;45.00;101618.88;6103126;23;100027;-86
2021/06/05 02:28:35;;;;;;;;;;;;;;;22.16;44.70;101623.97;6099332;23;96794;-85
2021/06/05 02:31:02;;;;;;;;;;;;;;;22.06;44.90;101627.41;6097538;23;96867;-85
2021/06/05 02:33:28;;;;;;;;;;;;;;;22.21;44.67;101629.03;6095859;23;101320;-85
2021/06/05 02:35:59;;;;;;;;;;;;;;;22.29;44.48;101629.34;6097438;23;98909;-86
2021/06/05 02:38:25;;;;;;;;;;;;;;;22.01;45.79;101622.34;6097642;23;96675;-86
2021/06/05 02:40:51;;;;;;;;;;;;;;;21.75;47.52;101636.69;6098408;23;96757;-86
2021/06/05 02:43:21;;;;;;;;;;;;;;;22.07;46.95;101626.44;6099364;23;98859;-86
2021/06/05 02:45:50;;;;;;;;;;;;;;;21.93;47.06;101621.97;6104308;23;98011;-86
2021/06/05 02:48:17;;;;;;;;;;;;;;;22.24;46.01;101620.75;6110883;23;96256;-86
2021/06/05 02:50:44;;;;;;;;;;;;;;;22.21;45.43;101620.94;6113726;23;96873;-85
2021/06/05 02:53:11;;;;;;;;;;;;;;;21.99;45.77;101613.50;6109210;23;99145;-85
2021/06/05 02:55:37;;;;;;;;;;;;;;;22.10;45.61;101619.03;6089081;23;97797;-85
2021/06/05 02:58:06;;;;;;;;;;;;;;;22.11;44.91;101620.75;6118321;23;96355;-87
2021/06/05 03:00:33;;;;;;;;;;;;;;;22.20;45.23;101620.09;6118321;23;96026;-86
2021/06/05 03:03:00;;;;;;;;;;;;;;;22.04;45.36;101618.59;6118309;23;99230;-86
2021/06/05 03:05:26;;;;;;;;;;;;;;;21.95;46.32;101619.19;6118882;23;97951;-86
2021/06/05 03:07:52;;;;;;;;;;;;;;;21.73;47.46;101623.34;6119096;23;96553;-86
2021/06/05 03:10:21;;;;;;;;;;;;;;;21.77;47.54;101613.25;6119153;23;96393;-86
2021/06/05 03:12:47;;;;;;;;;;;;;;;21.65;47.80;101614.09;6119537;23;97706;-86
2021/06/05 03:15:14;;;;;;;;;;;;;;;21.55;48.19;101624.59;6120488;23;99780;-86
2021/06/05 03:17:40;;;;;;;;;;;;;;;21.54;48.32;101625.56;6113086;23;96458;-85
2021/06/05 03:20:09;;;;;;;;;;;;;;;21.42;48.42;101623.69;6099936;23;96814;-85
2021/06/05 03:22:35;;;;;;;;;;;;;;;21.65;47.91;101630.22;6097116;23;100757;-85
2021/06/05 03:25:04;;;;;;;;;;;;;;;21.60;48.11;101624.28;6096932;23;100247;-85
2021/06/05 03:27:32;;;;;;;;;;;;;;;21.87;47.66;101628.66;6098094;23;97130;-86
2021/06/05 03:29:58;;;;;;;;;;;;;;;22.08;46.75;101620.94;6097653;23;96537;-86
2021/06/05 03:32:24;;;;;;;;;;;;;;;22.00;46.16;101625.13;6071805;23;101168;-87
2021/06/05 03:34:50;;;;;;;;;;;;;;;22.02;45.85;101618.69;6106916;23;98892;-86
2021/06/05 03:37:16;;;;;;;;;;;;;;;21.96;46.08;101627.19;6091208;23;96596;-86
2021/06/05 03:39:42;;;;;;;;;;;;;;;22.07;45.53;101612.97;6117551;23;97245;-86
2021/06/05 03:42:08;;;;;;;;;;;;;;;22.26;45.42;101610.72;6101214;23;99555;-86
2021/06/05 03:44:36;;;;;;;;;;;;;;;22.40;45.22;101617.81;6102045;23;99196;-87
2021/06/05 03:47:03;;;;;;;;;;;;;;;22.44;44.80;101617.50;6099843;23;96590;-85
2021/06/05 03:49:29;;;;;;;;;;;;;;;22.49;44.23;101618.03;6098642;23;96794;-85
2021/06/05 03:51:55;;;;;;;;;;;;;;;22.45;44.02;101611.13;6097484;23;99216;-85
2021/06/05 03:54:21;;;;;;;;;;;;;;;22.68;43.27;101609.47;6097158;23;96861;-86
2021/06/05 03:56:47;;;;;;;;;;;;;;;22.90;42.97;101606.13;6097282;23;96602;-86
2021/06/05 03:59:13;;;;;;;;;;;;;;;22.84;43.19;101603.88;6097176;23;96648;-84
2021/06/05 04:01:41;;;;;;;;;;;;;;;23.00;42.89;101607.16;6097966;23;99907;-86
2021/06/05 04:04:07;;;;;;;;;;;;;;;22.91;42.59;101610.50;6098349;23;99601;-86
2021/06/05 04:06:34;;;;;;;;;;;;;;;22.71;42.76;101608.41;6109456;23;96673;-85
2021/06/05 04:09:00;;;;;;;;;;;;;;;23.01;41.94;101607.06;6110788;23;96762;-86
2021/06/05 04:11:28;;;;;;;;;;;;;;;23.00;41.85;101609.84;6107549;23;98631;-86
2021/06/05 04:13:54;;;;;;;;;;;;;;;21.81;44.10;101621.00;6113162;23;99687;-85
2021/06/05 04:16:22;;;;;;;;;;;;;;;22.37;43.39;101621.59;6112069;23;96595;-85
2021/06/05 04:18:50;;;;;;;;;;;;;;;22.76;42.33;101617.91;6110938;23;96621;-85
2021/06/05 04:21:19;;;;;;;;;;;;;;;23.04;41.52;101611.34;6109616;23;99750;-85
2021/06/05 04:23:45;;;;;;;;;;;;;;;23.25;41.18;101617.84;6110937;23;101555;-85
2021/06/05 04:26:12;;;;;;;;;;;;;;;23.00;41.60;101615.25;6110889;23;97116;-86
2021/06/05 04:28:39;;;;;;;;;;;;;;;23.10;41.51;101623.53;6117875;23;96368;-86
2021/06/05 04:31:06;;;;;;;;;;;;;;;23.19;41.33;101621.00;6117486;23;99868;-86
2021/06/05 04:33:33;;;;;;;;;;;;;;;23.62;40.26;101620.50;6115113;23;98837;-86
2021/06/05 04:36:01;;;;;;;;;;;;;;;23.20;40.99;101622.72;6108254;23;97652;-85
2021/06/05 04:38:28;;;;;;;;;;;;;;;22.52;42.18;101625.00;6116646;23;96609;-84
2021/06/05 04:40:54;;;;;;;;;;;;;;;23.05;41.27;101615.75;6114669;23;99249;-85
2021/06/05 04:43:21;;;;;;;;;;;;;;;22.80;41.46;101611.31;6115129;23;97717;-85
2021/06/05 04:45:47;;;;;;;;;;;;;;;23.61;39.93;101616.06;6109774;23;97098;-86
2021/06/05 04:48:14;;;;;;;;;;;;;;;23.66;39.90;101619.28;6102989;23;96641;-86
2021/06/05 04:50:40;;;;;;;;;;;;;;;23.76;39.24;101631.09;6101711;23;99123;-84
2021/06/05 04:53:08;;;;;;;;;;;;;;;24.50;38.00;101624.34;6097439;23;100634;-85
2021/06/05 04:55:34;;;;;;;;;;;;;;;25.56;35.84;101626.38;6099337;23;96841;-85
2021/06/05 04:58:01;;;;;;;;;;;;;;;26.15;34.62;101621.25;6073276;23;97260;-86
2021/06/05 05:00:29;;;;;;;;;;;;;;;25.79;34.84;101625.31;6098385;23;98160;-85
2021/06/05 05:02:56;;;;;;;;;;;;;;;25.36;35.54;101621.78;6098061;23;100396;-86
2021/06/05 05:05:22;;;;;;;;;;;;;;;24.79;36.74;101622.88;6100587;23;96594;-84
2021/06/05 05:07:49;;;;;;;;;;;;;;;25.11;36.59;101624.81;6101914;23;96660;-85
2021/06/05 05:10:17;;;;;;;;;;;;;;;25.28;36.38;101621.53;6100229;23;99201;-86
2021/06/05 05:12:43;;;;;;;;;;;;;;;25.29;36.30;101620.56;6104069;23;99551;-86
2021/06/05 05:15:09;;;;;;;;;;;;;;;25.21;36.19;101623.03;6103485;23;96691;-85
2021/06/05 05:17:36;;;;;;;;;;;;;;;25.42;35.64;101615.84;6104634;23;96744;-87
2021/06/05 05:20:06;;;;;;;;;;;;;;;25.30;35.46;101616.88;6104307;23;100301;-84
2021/06/05 05:22:32;;;;;;;;;;;;;;;25.28;35.81;101621.53;6107063;23;100625;-86
2021/06/05 05:24:59;;;;;;;;;;;;;;;25.68;34.97;101624.50;6109546;23;97107;-85
2021/06/05 05:27:27;;;;;;;;;;;;;;;25.85;34.93;101618.50;6109852;23;96698;-85
2021/06/05 05:29:58;;;;;;;;;;;;;;;26.01;34.75;101620.75;6108680;23;100329;-85
2021/06/05 05:32:24;;;;;;;;;;;;;;;25.58;35.45;101623.56;6109674;23;99758;-86
2021/06/05 05:34:49;;;;;;;;;;;;;;;25.78;35.26;101618.19;6109842;23;96459;-86
2021/06/05 05:37:16;;;;;;;;;;;;;;;25.74;34.85;101614.00;6105938;23;96556;-86
2021/06/05 05:39:43;;;;;;;;;;;;;;;25.74;34.70;101622.13;6113054;23;100307;-87
2021/06/05 05:42:10;;;;;;;;;;;;;;;25.97;34.44;101627.41;6118611;23;99568;-88
2021/06/05 05:44:37;;;;;;;;;;;;;;;25.75;34.75;101629.25;6119721;23;95760;-87
2021/06/05 05:47:03;;;;;;;;;;;;;;;26.33;33.71;101628.78;6117187;23;96093;-84
2021/06/05 05:49:29;;;;;;;;;;;;;;;26.34;33.82;101631.38;6117328;23;96961;-87
2021/06/05 05:51:55;;;;;;;;;;;;;;;26.76;32.96;101625.84;6117284;23;99896;-86
2021/06/05 05:54:21;;;;;;;;;;;;;;;26.49;33.18;101632.75;6118377;23;96475;-86
2021/06/05 05:56:48;;;;;;;;;;;;;;;26.61;33.06;101628.06;6116278;23;95947;-88
2021/06/05 05:59:16;;;;;;;;;;;;;;;26.80;32.79;101630.84;6117017;23;99482;-86
2021/06/05 06:01:44;;;;;;;;;;;;;;;26.74;32.52;101630.53;6115658;23;98850;-85
2021/06/05 06:04:10;;;;;;;;;;;;;;;26.64;32.68;101635.09;6120415;23;97344;-85
2021/06/05 06:06:36;;;;;;;;;;;;;;;26.63;32.75;101636.06;6113644;23;96475;-86
2021/06/05 06:09:03;;;;;;;;;;;;;;;26.98;32.37;101630.25;6106073;23;98586;-85
2021/06/05 06:11:29;;;;;;;;;;;;;;;27.01;32.25;101629.94;6105126;23;98985;-86
2021/06/05 06:13:56;;;;;;;;;;;;;;;27.07;32.39;101640.22;6100710;23;96875;-85
2021/06/05 06:18:58;;;;;;;;;;;;;;;27.41;31.76;101638.00;6134251;22;99829;-85
2021/06/05 06:24:11;;;;;;;;;;;;;;;26.01;34.19;101634.28;6174495;22;96602;-86
2021/06/05 06:26:40;;;;;;;;;;;;;;;26.31;33.62;101636.22;6174878;22;96530;-89
2021/06/05 06:29:12;;;;;;;;;;;;;;;27.10;32.39;101632.69;6142685;22;96885;-88
2021/06/05 06:31:39;;;;;;;;;;;;;;;27.60;31.47;101632.63;6167819;22;100229;-87
2021/06/05 06:34:09;;;;;;;;;;;;;;;26.55;33.00;101629.47;6145045;22;96595;-87
2021/06/05 06:36:36;;;;;;;;;;;;;;;27.82;30.88;101639.63;6171754;22;96651;-87
2021/06/05 06:39:03;;;;;;;;;;;;;;;28.29;30.06;101635.94;6171807;22;98321;-86
2021/06/05 06:41:30;;;;;;;;;;;;;;;28.05;30.32;101644.56;6176892;22;97999;-85
2021/06/05 06:43:57;;;;;;;;;;;;;;;28.49;29.79;101637.59;6176415;22;96314;-85
2021/06/05 06:46:24;;;;;;;;;;;;;;;28.61;29.54;101638.31;6176076;22;96495;-84
2021/06/05 06:48:50;;;;;;;;;;;;;;;28.52;29.89;101642.75;6174942;22;98178;-85
2021/06/05 06:51:19;;;;;;;;;;;;;;;28.90;29.15;101640.88;6173114;22;99368;-86
2021/06/05 06:53:45;;;;;;;;;;;;;;;27.99;30.62;101638.88;6162119;22;96542;-86
2021/06/05 06:56:12;;;;;;;;;;;;;;;27.89;30.82;101638.91;6164094;22;96813;-87
2021/06/05 06:58:38;;;;;;;;;;;;;;;27.36;31.73;101646.59;6161935;22;99912;-86
2021/06/05 07:01:04;;;;;;;;;;;;;;;27.14;32.20;101635.97;6164026;22;100010;-86
2021/06/05 07:03:30;;;;;;;;;;;;;;;27.81;31.54;101638.75;6159469;22;96838;-87
2021/06/05 07:05:56;;;;;;;;;;;;;;;27.94;30.79;101636.59;6160183;22;96504;-86
2021/06/05 07:08:26;;;;;;;;;;;;;;;28.01;30.91;101637.72;6159686;22;97818;-86
2021/06/05 07:10:54;;;;;;;;;;;;;;;28.21;30.31;101638.56;6158456;22;100536;-88
2021/06/05 07:13:20;;;;;;;;;;;;;;;28.29;30.62;101629.69;6161322;22;96591;-86
2021/06/05 07:15:46;;;;;;;;;;;;;;;28.45;30.27;101629.91;6163266;22;96765;-87
2021/06/05 07:18:13;;;;;;;;;;;;;;;28.55;29.91;101631.56;6157922;22;99324;-86
2021/06/05 07:20:44;;;;;;;;;;;;;;;28.15;30.87;101628.28;6161151;22;98394;-84
2021/06/05 07:23:11;;;;;;;;;;;;;;;28.59;30.26;101632.16;6161312;22;96530;-85
2021/06/05 07:25:38;;;;;;;;;;;;;;;28.42;30.06;101635.66;6160120;22;96820;-85
2021/06/05 07:28:12;;;;;;;;;;;;;;;28.77;29.72;101634.94;6161465;22;98216;-86
2021/06/05 07:30:38;;;;;;;;;;;;;;;28.83;29.44;101632.47;6165262;22;99304;-84
2021/06/05 07:33:04;;;;;;;;;;;;;;;29.13;28.88;101630.44;6171783;22;97430;-86
2021/06/05 07:35:30;;;;;;;;;;;;;;;29.47;28.51;101633.41;6175054;22;96481;-86
2021/06/05 07:37:56;;;;;;;;;;;;;;;29.12;28.59;101634.19;6172088;22;99312;-86
2021/06/05 07:40:22;;;;;;;;;;;;;;;29.14;28.85;101633.03;6172206;22;99699;-86
2021/06/05 07:42:50;;;;;;;;;;;;;;;28.89;29.02;101637.31;6173225;22;96604;-85
2021/06/05 07:45:16;;;;;;;;;;;;;;;29.14;27.82;101626.72;6177147;22;96590;-86
2021/06/05 07:47:42;;;;;;;;;;;;;;;29.48;27.39;101635.06;6176384;22;97881;-85
2021/06/05 07:50:09;;;;;;;;;;;;;;;29.60;27.49;101628.41;6171088;22;99956;-84
2021/06/05 07:52:35;;;;;;;;;;;;;;;29.30;28.21;101626.88;6173316;22;96461;-85
2021/06/05 07:55:01;;;;;;;;;;;;;;;29.32;27.99;101630.31;6179308;22;96133;-85
2021/06/05 07:57:27;;;;;;;;;;;;;;;29.86;26.71;101633.91;6178962;22;100145;-85
2021/06/05 07:59:58;;;;;;;;;;;;;;;29.25;27.77;101626.50;6153624;22;97420;-83
2021/06/05 08:02:23;;;;;;;;;;;;;;;29.13;28.25;101620.44;6179392;22;95892;-85
2021/06/05 08:04:49;;;;;;;;;;;;;;;28.79;28.19;101617.47;6178638;22;95987;-87
2021/06/05 08:07:22;;;;;;;;;;;;;;;29.28;27.57;101613.41;6177256;22;96863;-86
2021/06/05 08:09:48;;;;;;;;;;;;;;;28.06;29.44;101610.97;6179516;22;99969;-85
2021/06/05 08:12:15;;;;;;;;;;;;;;;28.76;28.65;101612.31;6178329;22;96478;-86
2021/06/05 08:14:54;;;;;;;;;;;;;;;29.28;27.99;101607.13;6164337;22;96580;-83
2021/06/05 08:17:21;;;;;;;;;;;;;;;29.37;27.50;101603.50;6088962;23;96425;-85
2021/06/05 08:22:29;;;;;;;;;;;;;;;29.89;26.86;101615.34;6083459;23;96624;-85
2021/06/05 08:24:55;;;;;;;;;;;;;;;29.37;27.83;101610.81;6085531;23;96613;-86
2021/06/05 08:27:21;;;;;;;;;;;;;;;30.13;27.39;101609.25;6087769;23;96560;-86
2021/06/05 08:29:47;;;;;;;;;;;;;;;30.12;26.69;101609.44;6086652;23;100263;-85
2021/06/05 08:32:13;;;;;;;;;;;;;;;30.45;26.62;101594.97;6086688;23;96549;-86
2021/06/05 08:34:41;;;;;;;;;;;;;;;30.45;26.26;101598.56;6078905;23;96701;-87
2021/06/05 08:37:07;;;;;;;;;;;;;;;30.60;26.68;101604.25;6082731;23;100299;-86
2021/06/05 08:39:33;;;;;;;;;;;;;;;30.43;26.19;101603.31;6084184;23;99135;-85
2021/06/05 08:42:00;;;;;;;;;;;;;;;30.62;26.17;101595.91;6084109;23;96662;-85
2021/06/05 08:44:44;;;;;;;;;;;;;;;30.67;26.12;101599.00;6085621;23;96736;-86
2021/06/05 08:47:11;;;;;;;;;;;;;;;30.54;26.14;101602.19;6084183;23;99970;-85
2021/06/05 08:49:40;;;;;;;;;;;;;;;29.39;26.92;101601.50;6082489;23;96712;-85
2021/06/05 08:52:10;;;;;;;;;;;;;;;29.23;27.40;101595.84;6085115;23;96600;-86
2021/06/05 08:54:44;;;;;;;;;;;;;;;30.32;26.20;101603.59;6083824;23;96566;-84
2021/06/05 08:57:16;;;;;;;;;;;;;;;29.53;27.04;101600.94;6073330;23;97045;-86
2021/06/05 08:59:43;;;;;;;;;;;;;;;29.98;26.65;101610.88;6072871;23;97989;-86
2021/06/05 09:02:16;;;;;;;;;;;;;;;30.10;26.31;101599.53;6074537;23;96734;-86
2021/06/05 09:04:42;;;;;;;;;;;;;;;30.52;26.10;101595.22;6074095;23;96781;-86
2021/06/05 09:07:10;;;;;;;;;;;;;;;29.83;27.30;101602.38;6072442;23;100249;-86
2021/06/05 09:09:38;;;;;;;;;;;;;;;30.29;26.69;101603.03;6068325;23;101424;-84
2021/06/05 09:12:05;;;;;;;;;;;;;;;30.73;26.06;101603.78;6069692;23;97151;-85
2021/06/05 09:14:31;;;;;;;;;;;;;;;31.31;24.92;101600.25;6069751;23;96804;-87
2021/06/05 09:16:59;;;;;;;;;;;;;;;30.79;25.66;101601.25;6096792;23;99150;-86
2021/06/05 09:19:29;;;;;;;;;;;;;;;30.84;25.52;101598.91;6098766;23;99084;-86
2021/06/05 09:22:17;;;;;;;;;;;;;;;30.57;26.08;101606.47;6098771;23;96740;-88
2021/06/05 09:24:45;;;;;;;;;;;;;;;30.68;25.55;101593.38;6099887;23;96524;-86
2021/06/05 09:27:14;;;;;;;;;;;;;;;30.64;25.43;101593.88;6096478;23;101929;-85
2021/06/05 09:29:48;;;;;;;;;;;;;;;30.55;25.81;101605.78;6098228;23;99296;-87
2021/06/05 09:32:15;;;;;;;;;;;;;;;30.37;26.55;101594.91;6096471;23;96800;-86
2021/06/05 09:34:42;;;;;;;;;;;;;;;29.45;27.57;101603.59;6096999;23;97092;-87
2021/06/05 09:37:24;;;;;;;;;;;;;;;29.51;27.83;101597.53;6099842;23;101335;-87
2021/06/05 09:39:59;;;;;;;;;;;;;;;29.98;27.23;101598.09;6104141;23;101076;-85
2021/06/05 09:42:28;;;;;;;;;;;;;;;30.25;27.04;101596.22;6098777;23;96935;-84
2021/06/05 09:44:54;;;;;;;;;;;;;;;30.08;27.03;101595.25;6094931;23;97291;-85
2021/06/05 09:47:22;;;;;;;;;;;;;;;30.38;25.95;101594.75;6095150;23;96959;-84
2021/06/05 09:49:53;;;;;;;;;;;;;;;30.88;25.80;101596.69;6095591;23;100757;-84
2021/06/05 09:52:29;;;;;;;;;;;;;;;30.13;26.93;101595.63;6096904;23;96977;-83
2021/06/05 09:54:57;;;;;;;;;;;;;;;30.19;26.13;101589.56;6096443;23;96675;-84
2021/06/05 09:57:38;;;;;;;;;;;;;;;29.89;26.79;101584.53;6096800;23;100237;-83
2021/06/05 10:00:07;;;;;;;;;;;;;;;30.22;26.65;101586.47;6097119;23;99125;-82
2021/06/05 10:02:34;;;;;;;;;;;;;;;30.42;26.30;101587.09;6096879;23;97099;-84
2021/06/05 10:05:09;;;;;;;;;;;;;;;30.78;26.52;101588.66;6098564;23;96987;-83
2021/06/05 10:07:36;;;;;;;;;;;;;;;29.73;26.68;101591.56;6097159;23;100517;-84
2021/06/05 10:10:05;;;;;;;;;;;;;;;30.31;26.06;101585.53;6097606;23;101057;-85
2021/06/05 10:12:35;;;;;;;;;;;;;;;30.67;25.93;101580.75;6098721;23;97289;-84
2021/06/05 10:15:04;;;;;;;;;;;;;;;31.18;25.17;101576.13;6099138;23;96489;-86
2021/06/05 10:17:37;;;;;;;;;;;;;;;30.15;26.54;101582.69;6096453;23;99280;-84
2021/06/05 10:20:08;;;;;;;;;;;;;;;30.60;26.62;101567.94;6096926;23;101144;-85
2021/06/05 10:22:35;;;;;;;;;;;;;;;29.65;27.43;101569.72;6097938;23;96651;-86
2021/06/05 10:25:03;;;;;;;;;;;;;;;29.38;27.90;101574.44;6097544;23;96625;-85
2021/06/05 10:27:32;;;;;;;;;;;;;;;29.97;27.16;101565.56;6096769;23;98113;-86
2021/06/05 10:30:02;;;;;;;;;;;;;;;30.49;26.36;101569.97;6071008;23;98959;-85
2021/06/05 10:32:30;;;;;;;;;;;;;;;30.34;26.05;101570.69;6097153;23;96669;-86
2021/06/05 10:34:58;;;;;;;;;;;;;;;30.17;26.73;101572.50;6096307;23;97107;-86
2021/06/05 10:37:27;;;;;;;;;;;;;;;29.09;28.35;101572.75;6096666;23;99411;-84
2021/06/05 10:39:53;;;;;;;;;;;;;;;29.09;28.18;101561.84;6098021;23;96618;-85
2021/06/05 10:42:25;;;;;;;;;;;;;;;29.83;27.78;101564.25;6096394;23;97056;-84
2021/06/05 10:44:51;;;;;;;;;;;;;;;29.82;27.37;101557.06;6097010;23;96649;-86
2021/06/05 10:47:21;;;;;;;;;;;;;;;30.18;26.46;101557.00;6095062;23;96945;-85
2021/06/05 10:52:35;;;;;;;;;;;;;;;30.77;26.49;101542.44;6097171;23;96831;-87
2021/06/05 10:55:08;;;;;;;;;;;;;;;30.97;25.78;101541.13;6099909;23;96832;-83
2021/06/05 10:57:36;;;;;;;;;;;;;;;30.67;26.17;101541.72;6099025;23;101809;-82
2021/06/05 11:00:06;;;;;;;;;;;;;;;30.42;26.78;101544.31;6102201;23;98608;-84
2021/06/05 11:02:47;;;;;;;;;;;;;;;30.25;26.88;101545.28;6100475;23;97227;-85
2021/06/05 11:05:32;;;;;;;;;;;;;;;30.21;27.38;101546.59;6095849;23;96895;-84
2021/06/05 11:08:22;;;;;;;;;;;;;;;30.55;26.65;101545.78;6100636;23;98787;-83
2021/06/05 11:10:50;;;;;;;;;;;;;;;30.21;26.71;101540.31;6101610;23;99394;-83
2021/06/05 11:13:31;;;;;;;;;;;;;;;30.21;26.92;101543.88;6109179;23;96518;-82
2021/06/05 11:15:59;;;;;;;;;;;;;;;29.49;27.34;101531.47;6111541;23;96774;-82
2021/06/05 11:18:35;;;;;;;;;;;;;;;29.93;27.33;101535.03;6107231;23;98873;-83
2021/06/05 11:21:16;;;;;;;;;;;;;;;30.01;27.12;101532.38;6113387;23;99027;-82
2021/06/05 11:24:02;;;;;;;;;;;;;;;30.18;27.04;101535.19;6115808;23;95885;-85
2021/06/05 11:26:44;;;;;;;;;;;;;;;30.64;26.21;101521.09;6115727;23;96669;-84
2021/06/05 11:29:29;;;;;;;;;;;;;;;31.10;26.30;101516.97;6112019;23;99158;-84
2021/06/05 11:31:55;;;;;;;;;;;;;;;30.98;26.42;101517.41;6110468;23;100146;-84
2021/06/05 11:34:50;;;;;;;;;;;;;;;30.65;26.14;101511.91;6115965;23;96429;-84
2021/06/05 11:37:31;;;;;;;;;;;;;;;30.47;26.48;101513.84;6116072;23;95934;-82
2021/06/05 11:39:59;;;;;;;;;;;;;;;30.65;25.96;101509.19;6102552;23;99889;-85
2021/06/05 11:42:43;;;;;;;;;;;;;;;30.96;25.95;101503.94;6100191;23;98937;-85
2021/06/05 11:45:27;;;;;;;;;;;;;;;30.96;25.89;101501.22;6099066;23;97108;-84
2021/06/05 11:47:55;;;;;;;;;;;;;;;30.69;26.29;101504.22;6099631;23;97247;-85
2021/06/05 11:50:24;;;;;;;;;;;;;;;31.09;25.96;101500.75;6102080;23;99042;-84
2021/06/05 11:52:51;;;;;;;;;;;;;;;31.38;25.22;101497.47;6107201;23;100244;-85
2021/06/05 11:55:20;;;;;;;;;;;;;;;31.46;24.93;101497.47;6082147;23;96765;-86
2021/06/05 11:57:56;;;;;;;;;;;;;;;31.39;24.70;101489.13;6108177;23;96619;-85
2021/06/05 12:00:27;;;;;;;;;;;;;;;31.51;24.38;101489.63;6102597;23;102145;-85
2021/06/05 12:02:57;;;;;;;;;;;;;;;30.71;25.21;101483.09;6101446;23;100001;-85
2021/06/05 12:05:25;;;;;;;;;;;;;;;31.14;25.08;101485.56;6098559;23;96574;-86
2021/06/05 12:07:51;;;;;;;;;;;;;;;31.12;24.92;101482.13;6099715;23;96917;-85
2021/06/05 12:10:30;;;;;;;;;;;;;;;31.31;25.52;101477.38;6097961;23;98992;-85
2021/06/05 12:12:56;;;;;;;;;;;;;;;31.51;24.40;101470.50;6099295;23;97630;-83
2021/06/05 12:15:24;;;;;;;;;;;;;;;31.60;24.41;101470.34;6104481;23;96631;-85
2021/06/05 12:17:55;;;;;;;;;;;;;;;31.16;24.94;101475.31;6098661;23;96563;-82
2021/06/05 12:20:26;;;;;;;;;;;;;;;31.61;24.23;101469.34;6092190;23;100870;-84
2021/06/05 12:22:54;;;;;;;;;;;;;;;31.37;24.42;101463.03;6067045;23;98803;-83
2021/06/05 12:25:27;;;;;;;;;;;;;;;31.43;24.72;101467.81;6096078;23;96690;-84
2021/06/05 12:28:05;;;;;;;;;;;;;;;31.53;24.74;101469.31;6101737;23;97213;-86
2021/06/05 12:30:31;;;;;;;;;;;;;;;31.22;24.92;101460.13;6099585;23;100086;-86
2021/06/05 12:32:58;;;;;;;;;;;;;;;31.00;25.48;101458.03;6100607;23;102386;-85
2021/06/05 12:35:38;;;;;;;;;;;;;;;30.57;25.68;101464.66;6106390;23;97114;-83
2021/06/05 12:38:07;;;;;;;;;;;;;;;30.23;25.88;101457.34;6106493;23;96681;-85
2021/06/05 12:40:42;;;;;;;;;;;;;;;30.55;25.67;101450.31;6100241;23;99558;-86
2021/06/05 12:43:10;;;;;;;;;;;;;;;30.23;26.14;101459.22;6098965;23;98658;-84
2021/06/05 12:45:37;;;;;;;;;;;;;;;30.49;25.39;101455.44;6098198;23;96654;-83
2021/06/05 12:48:15;;;;;;;;;;;;;;;30.72;26.02;101454.81;6099456;23;96654;-84
2021/06/05 12:50:44;;;;;;;;;;;;;;;30.77;25.77;101461.47;6077311;23;99222;-84
2021/06/05 12:53:16;;;;;;;;;;;;;;;31.08;25.13;101450.75;6099135;23;101094;-84